sensor_id;sensor_type;location;lat;lon;timestamp;temperature;humidity
1381;DHT22;684;48.342;10.096;2023-04-24T00:01:00;12.30;36.30
1381;DHT22;684;48.342;10.096;2023-04-24T00:03:29;12.30;36.30
1381;DHT22;684;48.342;10.096;2023-04-24T00:05:55;12.30;36.20
1381;DHT22;684;48.342;10.096;2023-04-24T00:08:24;12.30;36.50
1381;DHT22;684;48.342;10.096;2023-04-24T00:10:51;12.30;36.30
1381;DHT22;684;48.342;10.096;2023-04-24T00:13:18;12.30;36.60
1381;DHT22;684;48.342;10.096;2023-04-24T00:15:45;12.30;36.70
1381;DHT22;684;48.342;10.096;2023-04-24T00:18:12;12.30;36.80
1381;DHT22;684;48.342;10.096;2023-04-24T00:20:40;12.30;36.80
1381;DHT22;684;48.342;10.096;2023-04-24T00:23:06;12.30;36.80
1381;DHT22;684;48.342;10.096;2023-04-24T00:25:33;12.30;36.60
1381;DHT22;684;48.342;10.096;2023-04-24T00:28:00;12.30;36.60
1381;DHT22;684;48.342;10.096;2023-04-24T00:30:27;12.30;36.60
1381;DHT22;684;48.342;10.096;2023-04-24T00:32:54;12.30;36.60
1381;DHT22;684;48.342;10.096;2023-04-24T00:35:21;12.30;36.50
1381;DHT22;684;48.342;10.096;2023-04-24T00:37:50;12.40;36.40
1381;DHT22;684;48.342;10.096;2023-04-24T00:40:16;12.40;36.50
1381;DHT22;684;48.342;10.096;2023-04-24T00:42:43;12.40;37.10
1381;DHT22;684;48.342;10.096;2023-04-24T00:45:10;12.30;36.80
1381;DHT22;684;48.342;10.096;2023-04-24T00:47:38;12.30;36.90
1381;DHT22;684;48.342;10.096;2023-04-24T00:50:06;12.30;36.90
1381;DHT22;684;48.342;10.096;2023-04-24T00:52:33;12.30;36.70
1381;DHT22;684;48.342;10.096;2023-04-24T00:55:01;12.30;36.60
1381;DHT22;684;48.342;10.096;2023-04-24T00:57:28;12.20;36.70
1381;DHT22;684;48.342;10.096;2023-04-24T00:59:55;12.20;36.50
1381;DHT22;684;48.342;10.096;2023-04-24T01:02:22;12.30;36.60
1381;DHT22;684;48.342;10.096;2023-04-24T01:04:50;12.20;36.70
1381;DHT22;684;48.342;10.096;2023-04-24T01:07:19;12.20;36.80
1381;DHT22;684;48.342;10.096;2023-04-24T01:09:48;12.20;37.10
1381;DHT22;684;48.342;10.096;2023-04-24T01:12:18;12.20;37.00
1381;DHT22;684;48.342;10.096;2023-04-24T01:14:45;12.20;36.70
1381;DHT22;684;48.342;10.096;2023-04-24T01:17:12;12.20;36.80
1381;DHT22;684;48.342;10.096;2023-04-24T01:19:38;12.20;36.60
1381;DHT22;684;48.342;10.096;2023-04-24T01:22:12;12.20;36.90
1381;DHT22;684;48.342;10.096;2023-04-24T01:24:40;12.20;37.00
1381;DHT22;684;48.342;10.096;2023-04-24T01:27:07;12.20;36.80
1381;DHT22;684;48.342;10.096;2023-04-24T01:29:35;12.20;36.70
1381;DHT22;684;48.342;10.096;2023-04-24T01:32:02;12.20;36.80
1381;DHT22;684;48.342;10.096;2023-04-24T01:34:30;12.10;36.60
1381;DHT22;684;48.342;10.096;2023-04-24T01:36:57;12.10;36.60
1381;DHT22;684;48.342;10.096;2023-04-24T01:39:25;12.10;36.40
1381;DHT22;684;48.342;10.096;2023-04-24T01:41:54;12.10;37.20
1381;DHT22;684;48.342;10.096;2023-04-24T01:44:21;12.10;36.50
1381;DHT22;684;48.342;10.096;2023-04-24T01:46:47;12.10;36.60
1381;DHT22;684;48.342;10.096;2023-04-24T01:49:14;12.00;36.60
1381;DHT22;684;48.342;10.096;2023-04-24T01:51:41;12.00;36.60
1381;DHT22;684;48.342;10.096;2023-04-24T01:54:08;12.00;36.30
1381;DHT22;684;48.342;10.096;2023-04-24T01:56:36;12.00;36.20
1381;DHT22;684;48.342;10.096;2023-04-24T01:59:07;12.00;36.30
1381;DHT22;684;48.342;10.096;2023-04-24T02:01:36;12.00;36.10
1381;DHT22;684;48.342;10.096;2023-04-24T02:04:04;12.00;36.30
1381;DHT22;684;48.342;10.096;2023-04-24T02:06:31;12.00;36.20
1381;DHT22;684;48.342;10.096;2023-04-24T02:08:58;12.00;36.20
1381;DHT22;684;48.342;10.096;2023-04-24T02:11:25;12.00;36.30
1381;DHT22;684;48.342;10.096;2023-04-24T02:13:53;11.90;36.50
1381;DHT22;684;48.342;10.096;2023-04-24T02:16:20;11.90;36.60
1381;DHT22;684;48.342;10.096;2023-04-24T02:18:47;11.90;36.60
1381;DHT22;684;48.342;10.096;2023-04-24T02:21:13;11.90;36.70
1381;DHT22;684;48.342;10.096;2023-04-24T02:23:40;11.90;36.70
1381;DHT22;684;48.342;10.096;2023-04-24T02:26:07;11.90;37.00
1381;DHT22;684;48.342;10.096;2023-04-24T02:28:34;11.80;37.00
1381;DHT22;684;48.342;10.096;2023-04-24T02:31:02;11.80;36.90
1381;DHT22;684;48.342;10.096;2023-04-24T02:33:29;11.80;36.90
1381;DHT22;684;48.342;10.096;2023-04-24T02:35:55;11.80;36.90
1381;DHT22;684;48.342;10.096;2023-04-24T02:38:22;11.80;37.00
1381;DHT22;684;48.342;10.096;2023-04-24T02:40:49;11.80;36.90
1381;DHT22;684;48.342;10.096;2023-04-24T02:43:15;11.80;36.70
1381;DHT22;684;48.342;10.096;2023-04-24T02:45:42;11.90;36.60
1381;DHT22;684;48.342;10.096;2023-04-24T02:48:10;11.90;36.50
1381;DHT22;684;48.342;10.096;2023-04-24T02:50:38;11.90;36.50
1381;DHT22;684;48.342;10.096;2023-04-24T02:53:05;11.90;36.30
1381;DHT22;684;48.342;10.096;2023-04-24T02:55:32;11.90;36.20
1381;DHT22;684;48.342;10.096;2023-04-24T02:57:58;11.90;35.90
1381;DHT22;684;48.342;10.096;2023-04-24T03:00:25;11.90;36.10
1381;DHT22;684;48.342;10.096;2023-04-24T03:02:52;11.90;36.30
1381;DHT22;684;48.342;10.096;2023-04-24T03:05:20;11.90;36.30
1381;DHT22;684;48.342;10.096;2023-04-24T03:07:47;11.80;36.20
1381;DHT22;684;48.342;10.096;2023-04-24T03:10:13;11.80;36.30
1381;DHT22;684;48.342;10.096;2023-04-24T03:12:40;11.80;36.40
1381;DHT22;684;48.342;10.096;2023-04-24T03:15:08;11.80;36.30
1381;DHT22;684;48.342;10.096;2023-04-24T03:17:35;11.80;36.50
1381;DHT22;684;48.342;10.096;2023-04-24T03:20:02;11.80;36.60
1381;DHT22;684;48.342;10.096;2023-04-24T03:22:32;11.80;36.60
1381;DHT22;684;48.342;10.096;2023-04-24T03:24:59;11.80;36.50
1381;DHT22;684;48.342;10.096;2023-04-24T03:27:26;11.70;36.60
1381;DHT22;684;48.342;10.096;2023-04-24T03:29:53;11.80;36.50
1381;DHT22;684;48.342;10.096;2023-04-24T03:32:20;11.70;36.60
1381;DHT22;684;48.342;10.096;2023-04-24T03:34:48;11.70;36.80
1381;DHT22;684;48.342;10.096;2023-04-24T03:37:15;11.70;37.30
1381;DHT22;684;48.342;10.096;2023-04-24T03:39:43;11.70;37.00
1381;DHT22;684;48.342;10.096;2023-04-24T03:42:10;11.70;37.00
1381;DHT22;684;48.342;10.096;2023-04-24T03:44:37;11.70;37.10
1381;DHT22;684;48.342;10.096;2023-04-24T03:47:03;11.70;37.20
1381;DHT22;684;48.342;10.096;2023-04-24T03:49:30;11.70;37.00
1381;DHT22;684;48.342;10.096;2023-04-24T03:51:57;11.70;36.90
1381;DHT22;684;48.342;10.096;2023-04-24T03:54:24;11.70;37.20
1381;DHT22;684;48.342;10.096;2023-04-24T03:56:52;11.70;36.90
1381;DHT22;684;48.342;10.096;2023-04-24T03:59:18;11.70;36.90
1381;DHT22;684;48.342;10.096;2023-04-24T04:01:45;11.70;37.00
1381;DHT22;684;48.342;10.096;2023-04-24T04:04:12;11.70;36.80
1381;DHT22;684;48.342;10.096;2023-04-24T04:06:39;11.70;36.80
1381;DHT22;684;48.342;10.096;2023-04-24T04:09:05;11.70;37.00
1381;DHT22;684;48.342;10.096;2023-04-24T04:11:32;11.70;37.20
1381;DHT22;684;48.342;10.096;2023-04-24T04:14:02;11.70;37.20
1381;DHT22;684;48.342;10.096;2023-04-24T04:16:29;11.70;36.90
1381;DHT22;684;48.342;10.096;2023-04-24T04:18:55;11.70;36.90
1381;DHT22;684;48.342;10.096;2023-04-24T04:21:22;11.70;36.60
1381;DHT22;684;48.342;10.096;2023-04-24T04:23:49;11.70;36.60
1381;DHT22;684;48.342;10.096;2023-04-24T04:26:16;11.70;36.60
1381;DHT22;684;48.342;10.096;2023-04-24T04:28:44;11.70;36.50
1381;DHT22;684;48.342;10.096;2023-04-24T04:31:12;11.70;36.40
1381;DHT22;684;48.342;10.096;2023-04-24T04:33:39;11.70;36.10
1381;DHT22;684;48.342;10.096;2023-04-24T04:36:06;11.70;36.00
1381;DHT22;684;48.342;10.096;2023-04-24T04:38:33;11.60;36.20
1381;DHT22;684;48.342;10.096;2023-04-24T04:41:00;11.60;36.30
1381;DHT22;684;48.342;10.096;2023-04-24T04:43:27;11.60;36.20
1381;DHT22;684;48.342;10.096;2023-04-24T04:45:54;11.60;36.40
1381;DHT22;684;48.342;10.096;2023-04-24T04:48:22;11.60;36.00
1381;DHT22;684;48.342;10.096;2023-04-24T04:50:49;11.60;36.30
1381;DHT22;684;48.342;10.096;2023-04-24T04:53:16;11.60;36.10
1381;DHT22;684;48.342;10.096;2023-04-24T04:55:43;11.70;35.70
1381;DHT22;684;48.342;10.096;2023-04-24T04:58:09;11.70;35.80
1381;DHT22;684;48.342;10.096;2023-04-24T05:00:36;11.70;35.60
1381;DHT22;684;48.342;10.096;2023-04-24T05:03:03;11.70;35.40
1381;DHT22;684;48.342;10.096;2023-04-24T05:05:31;11.70;35.00
1381;DHT22;684;48.342;10.096;2023-04-24T05:07:58;11.70;35.00
1381;DHT22;684;48.342;10.096;2023-04-24T05:10:25;11.70;35.30
1381;DHT22;684;48.342;10.096;2023-04-24T05:12:52;11.60;35.40
1381;DHT22;684;48.342;10.096;2023-04-24T05:15:18;11.60;35.80
1381;DHT22;684;48.342;10.096;2023-04-24T05:17:45;11.60;35.50
1381;DHT22;684;48.342;10.096;2023-04-24T05:20:12;11.60;35.30
1381;DHT22;684;48.342;10.096;2023-04-24T05:22:41;11.60;35.50
1381;DHT22;684;48.342;10.096;2023-04-24T05:25:08;11.60;35.50
1381;DHT22;684;48.342;10.096;2023-04-24T05:27:35;11.60;35.60
1381;DHT22;684;48.342;10.096;2023-04-24T05:30:01;11.60;36.00
1381;DHT22;684;48.342;10.096;2023-04-24T05:32:28;11.60;34.80
1381;DHT22;684;48.342;10.096;2023-04-24T05:34:55;11.70;34.50
1381;DHT22;684;48.342;10.096;2023-04-24T05:37:22;11.70;34.40
1381;DHT22;684;48.342;10.096;2023-04-24T05:39:50;11.70;34.30
1381;DHT22;684;48.342;10.096;2023-04-24T05:42:16;11.70;34.50
1381;DHT22;684;48.342;10.096;2023-04-24T05:44:43;11.80;34.40
1381;DHT22;684;48.342;10.096;2023-04-24T05:47:10;11.80;33.90
1381;DHT22;684;48.342;10.096;2023-04-24T05:49:36;11.80;33.80
1381;DHT22;684;48.342;10.096;2023-04-24T05:52:03;11.90;33.50
1381;DHT22;684;48.342;10.096;2023-04-24T05:54:31;12.00;33.20
1381;DHT22;684;48.342;10.096;2023-04-24T05:57:00;12.00;33.10
1381;DHT22;684;48.342;10.096;2023-04-24T05:59:32;12.10;32.90
1381;DHT22;684;48.342;10.096;2023-04-24T06:01:59;12.10;32.90
1381;DHT22;684;48.342;10.096;2023-04-24T06:04:26;12.10;32.60
1381;DHT22;684;48.342;10.096;2023-04-24T06:06:53;12.10;32.30
1381;DHT22;684;48.342;10.096;2023-04-24T06:09:21;12.20;32.30
1381;DHT22;684;48.342;10.096;2023-04-24T06:11:48;12.20;32.00
1381;DHT22;684;48.342;10.096;2023-04-24T06:14:16;12.30;31.90
1381;DHT22;684;48.342;10.096;2023-04-24T06:16:43;12.30;31.80
1381;DHT22;684;48.342;10.096;2023-04-24T06:19:10;12.30;31.70
1381;DHT22;684;48.342;10.096;2023-04-24T06:21:36;12.30;31.40
1381;DHT22;684;48.342;10.096;2023-04-24T06:24:03;12.30;31.90
1381;DHT22;684;48.342;10.096;2023-04-24T06:26:30;12.30;32.20
1381;DHT22;684;48.342;10.096;2023-04-24T06:28:57;12.20;32.20
1381;DHT22;684;48.342;10.096;2023-04-24T06:31:26;12.20;32.50
1381;DHT22;684;48.342;10.096;2023-04-24T06:33:53;12.30;32.80
1381;DHT22;684;48.342;10.096;2023-04-24T06:36:20;12.20;33.00
1381;DHT22;684;48.342;10.096;2023-04-24T06:38:47;12.10;33.10
1381;DHT22;684;48.342;10.096;2023-04-24T06:41:13;12.10;32.60
1381;DHT22;684;48.342;10.096;2023-04-24T06:43:40;12.00;32.70
1381;DHT22;684;48.342;10.096;2023-04-24T06:46:07;12.00;31.30
1381;DHT22;684;48.342;10.096;2023-04-24T06:48:35;12.00;31.40
1381;DHT22;684;48.342;10.096;2023-04-24T06:51:02;11.90;31.90
1381;DHT22;684;48.342;10.096;2023-04-24T06:53:29;12.00;31.60
1381;DHT22;684;48.342;10.096;2023-04-24T06:55:55;11.90;31.70
1381;DHT22;684;48.342;10.096;2023-04-24T06:58:23;12.00;31.60
1381;DHT22;684;48.342;10.096;2023-04-24T07:00:50;12.00;31.80
1381;DHT22;684;48.342;10.096;2023-04-24T07:03:17;11.90;31.80
1381;DHT22;684;48.342;10.096;2023-04-24T07:05:45;11.90;31.90
1381;DHT22;684;48.342;10.096;2023-04-24T07:08:13;11.90;31.90
1381;DHT22;684;48.342;10.096;2023-04-24T07:10:42;12.00;31.60
1381;DHT22;684;48.342;10.096;2023-04-24T07:13:09;12.00;31.60
1381;DHT22;684;48.342;10.096;2023-04-24T07:15:35;11.90;31.00
1381;DHT22;684;48.342;10.096;2023-04-24T07:18:02;11.90;30.80
1381;DHT22;684;48.342;10.096;2023-04-24T07:20:29;11.90;30.50
1381;DHT22;684;48.342;10.096;2023-04-24T07:22:57;11.80;30.20
1381;DHT22;684;48.342;10.096;2023-04-24T07:25:24;11.80;30.10
1381;DHT22;684;48.342;10.096;2023-04-24T07:27:51;11.80;30.20
1381;DHT22;684;48.342;10.096;2023-04-24T07:30:18;11.80;30.30
1381;DHT22;684;48.342;10.096;2023-04-24T07:32:45;12.00;30.20
1381;DHT22;684;48.342;10.096;2023-04-24T07:35:11;12.10;29.70
1381;DHT22;684;48.342;10.096;2023-04-24T07:37:38;12.30;29.40
1381;DHT22;684;48.342;10.096;2023-04-24T07:40:08;12.60;28.40
1381;DHT22;684;48.342;10.096;2023-04-24T07:42:34;13.00;27.10
1381;DHT22;684;48.342;10.096;2023-04-24T07:45:01;13.40;25.90
1381;DHT22;684;48.342;10.096;2023-04-24T07:47:28;13.50;24.30
1381;DHT22;684;48.342;10.096;2023-04-24T07:49:55;13.70;23.50
1381;DHT22;684;48.342;10.096;2023-04-24T07:52:22;14.00;21.90
1381;DHT22;684;48.342;10.096;2023-04-24T07:54:49;14.70;20.30
1381;DHT22;684;48.342;10.096;2023-04-24T07:57:19;15.80;18.50
1381;DHT22;684;48.342;10.096;2023-04-24T07:59:46;17.90;14.70
1381;DHT22;684;48.342;10.096;2023-04-24T08:02:12;20.20;10.40
1381;DHT22;684;48.342;10.096;2023-04-24T08:04:40;22.40;6.60
1381;DHT22;684;48.342;10.096;2023-04-24T08:07:06;25.20;1.40
1381;DHT22;684;48.342;10.096;2023-04-24T08:09:33;27.50;1.00
1381;DHT22;684;48.342;10.096;2023-04-24T08:12:00;29.60;1.00
1381;DHT22;684;48.342;10.096;2023-04-24T08:14:29;31.60;1.00
1381;DHT22;684;48.342;10.096;2023-04-24T08:16:55;33.10;1.00
1381;DHT22;684;48.342;10.096;2023-04-24T08:19:22;33.80;1.00
1381;DHT22;684;48.342;10.096;2023-04-24T08:21:49;34.00;1.00
1381;DHT22;684;48.342;10.096;2023-04-24T08:24:16;34.00;1.00
1381;DHT22;684;48.342;10.096;2023-04-24T08:26:42;34.90;1.00
1381;DHT22;684;48.342;10.096;2023-04-24T08:29:09;36.40;1.00
1381;DHT22;684;48.342;10.096;2023-04-24T08:31:37;37.90;1.00
1381;DHT22;684;48.342;10.096;2023-04-24T08:34:04;38.40;1.00
1381;DHT22;684;48.342;10.096;2023-04-24T08:36:31;37.80;1.00
1381;DHT22;684;48.342;10.096;2023-04-24T08:38:58;37.20;1.00
1381;DHT22;684;48.342;10.096;2023-04-24T08:41:27;36.40;1.00
1381;DHT22;684;48.342;10.096;2023-04-24T08:43:54;34.40;1.00
1381;DHT22;684;48.342;10.096;2023-04-24T08:46:24;33.30;1.00
1381;DHT22;684;48.342;10.096;2023-04-24T08:48:52;33.30;1.00
1381;DHT22;684;48.342;10.096;2023-04-24T08:51:19;34.30;1.00
1381;DHT22;684;48.342;10.096;2023-04-24T08:53:47;33.40;1.00
1381;DHT22;684;48.342;10.096;2023-04-24T08:56:14;31.20;1.00
1381;DHT22;684;48.342;10.096;2023-04-24T08:58:41;31.40;1.00
1381;DHT22;684;48.342;10.096;2023-04-24T09:01:09;33.40;1.00
1381;DHT22;684;48.342;10.096;2023-04-24T09:03:36;34.00;1.00
1381;DHT22;684;48.342;10.096;2023-04-24T09:06:06;32.60;1.00
1381;DHT22;684;48.342;10.096;2023-04-24T09:08:34;30.30;1.00
1381;DHT22;684;48.342;10.096;2023-04-24T09:11:01;28.30;1.00
1381;DHT22;684;48.342;10.096;2023-04-24T09:13:30;26.40;1.00
1381;DHT22;684;48.342;10.096;2023-04-24T09:15:56;25.00;1.00
1381;DHT22;684;48.342;10.096;2023-04-24T09:18:26;23.70;1.00
1381;DHT22;684;48.342;10.096;2023-04-24T09:21:00;22.50;1.00
1381;DHT22;684;48.342;10.096;2023-04-24T09:23:30;21.40;1.00
1381;DHT22;684;48.342;10.096;2023-04-24T09:25:58;20.70;1.00
1381;DHT22;684;48.342;10.096;2023-04-24T09:28:29;20.10;2.00
1381;DHT22;684;48.342;10.096;2023-04-24T09:31:03;19.60;3.00
1381;DHT22;684;48.342;10.096;2023-04-24T09:33:30;19.00;3.80
1381;DHT22;684;48.342;10.096;2023-04-24T09:35:57;18.60;4.80
1381;DHT22;684;48.342;10.096;2023-04-24T09:38:32;18.50;5.50
1381;DHT22;684;48.342;10.096;2023-04-24T09:41:00;18.50;5.50
1381;DHT22;684;48.342;10.096;2023-04-24T09:43:28;19.10;5.20
1381;DHT22;684;48.342;10.096;2023-04-24T09:45:56;21.60;3.00
1381;DHT22;684;48.342;10.096;2023-04-24T09:48:30;25.40;1.00
1381;DHT22;684;48.342;10.096;2023-04-24T09:50:57;28.90;1.00
1381;DHT22;684;48.342;10.096;2023-04-24T09:53:25;31.20;1.00
1381;DHT22;684;48.342;10.096;2023-04-24T09:55:53;33.20;1.00
1381;DHT22;684;48.342;10.096;2023-04-24T09:58:24;34.00;1.00
1381;DHT22;684;48.342;10.096;2023-04-24T10:00:53;32.10;1.00
1381;DHT22;684;48.342;10.096;2023-04-24T10:03:23;30.10;1.00
1381;DHT22;684;48.342;10.096;2023-04-24T10:05:51;31.20;1.00
1381;DHT22;684;48.342;10.096;2023-04-24T10:08:18;30.60;1.00
1381;DHT22;684;48.342;10.096;2023-04-24T10:10:46;29.10;1.00
1381;DHT22;684;48.342;10.096;2023-04-24T10:13:15;26.80;1.00
1381;DHT22;684;48.342;10.096;2023-04-24T10:15:42;24.80;1.00
1381;DHT22;684;48.342;10.096;2023-04-24T10:18:10;23.10;1.00
1381;DHT22;684;48.342;10.096;2023-04-24T10:20:39;21.90;1.00
1381;DHT22;684;48.342;10.096;2023-04-24T10:23:06;21.50;1.00
1381;DHT22;684;48.342;10.096;2023-04-24T10:25:34;22.40;1.00
1381;DHT22;684;48.342;10.096;2023-04-24T10:28:01;23.70;1.00
1381;DHT22;684;48.342;10.096;2023-04-24T10:30:31;25.20;1.00
1381;DHT22;684;48.342;10.096;2023-04-24T10:33:00;26.30;1.00
1381;DHT22;684;48.342;10.096;2023-04-24T10:35:30;25.80;1.00
1381;DHT22;684;48.342;10.096;2023-04-24T10:38:01;24.40;1.00
1381;DHT22;684;48.342;10.096;2023-04-24T10:40:31;23.00;1.00
1381;DHT22;684;48.342;10.096;2023-04-24T10:42:59;21.90;1.00
1381;DHT22;684;48.342;10.096;2023-04-24T10:45:30;21.10;1.00
1381;DHT22;684;48.342;10.096;2023-04-24T10:47:57;20.40;1.00
1381;DHT22;684;48.342;10.096;2023-04-24T10:50:27;19.80;1.00
1381;DHT22;684;48.342;10.096;2023-04-24T10:53:05;19.40;1.60
1381;DHT22;684;48.342;10.096;2023-04-24T10:55:43;19.00;2.70
1381;DHT22;684;48.342;10.096;2023-04-24T10:58:11;18.80;2.40
1381;DHT22;684;48.342;10.096;2023-04-24T11:00:40;18.50;3.90
1381;DHT22;684;48.342;10.096;2023-04-24T11:03:12;18.50;4.10
1381;DHT22;684;48.342;10.096;2023-04-24T11:06:06;18.30;2.90
1381;DHT22;684;48.342;10.096;2023-04-24T11:08:40;18.10;3.80
1381;DHT22;684;48.342;10.096;2023-04-24T11:11:10;17.90;4.40
1381;DHT22;684;48.342;10.096;2023-04-24T11:14:05;17.70;5.70
1381;DHT22;684;48.342;10.096;2023-04-24T11:16:42;17.30;6.10
1381;DHT22;684;48.342;10.096;2023-04-24T11:19:17;17.20;8.00
1381;DHT22;684;48.342;10.096;2023-04-24T11:21:46;17.30;8.70
1381;DHT22;684;48.342;10.096;2023-04-24T11:24:30;17.40;9.90
1381;DHT22;684;48.342;10.096;2023-04-24T11:26:59;17.50;10.00
1381;DHT22;684;48.342;10.096;2023-04-24T11:29:43;17.50;9.30
1381;DHT22;684;48.342;10.096;2023-04-24T11:32:26;17.60;8.90
1381;DHT22;684;48.342;10.096;2023-04-24T11:34:54;17.70;8.10
1381;DHT22;684;48.342;10.096;2023-04-24T11:37:22;17.70;8.50
1381;DHT22;684;48.342;10.096;2023-04-24T11:39:51;17.70;6.30
1381;DHT22;684;48.342;10.096;2023-04-24T11:42:18;17.70;7.10
1381;DHT22;684;48.342;10.096;2023-04-24T11:44:46;17.60;6.40
1381;DHT22;684;48.342;10.096;2023-04-24T11:47:13;17.60;8.40
1381;DHT22;684;48.342;10.096;2023-04-24T11:49:42;17.60;7.60
1381;DHT22;684;48.342;10.096;2023-04-24T11:52:09;17.50;5.90
1381;DHT22;684;48.342;10.096;2023-04-24T11:54:36;17.30;5.80
1381;DHT22;684;48.342;10.096;2023-04-24T11:57:04;17.10;5.80
1381;DHT22;684;48.342;10.096;2023-04-24T11:59:35;16.90;7.00
1381;DHT22;684;48.342;10.096;2023-04-24T12:02:02;16.70;6.80
1381;DHT22;684;48.342;10.096;2023-04-24T12:04:38;16.50;7.00
1381;DHT22;684;48.342;10.096;2023-04-24T12:07:07;16.40;7.50
1381;DHT22;684;48.342;10.096;2023-04-24T12:09:41;16.40;7.40
1381;DHT22;684;48.342;10.096;2023-04-24T12:12:08;16.30;6.80
1381;DHT22;684;48.342;10.096;2023-04-24T12:14:47;16.20;6.60
1381;DHT22;684;48.342;10.096;2023-04-24T12:17:14;16.20;6.40
1381;DHT22;684;48.342;10.096;2023-04-24T12:19:45;16.10;6.30
1381;DHT22;684;48.342;10.096;2023-04-24T12:22:14;16.00;4.80
1381;DHT22;684;48.342;10.096;2023-04-24T12:25:00;15.80;5.10
1381;DHT22;684;48.342;10.096;2023-04-24T12:27:30;15.60;6.00
1381;DHT22;684;48.342;10.096;2023-04-24T12:29:58;15.70;6.60
1381;DHT22;684;48.342;10.096;2023-04-24T12:32:25;15.60;6.50
1381;DHT22;684;48.342;10.096;2023-04-24T12:34:53;15.80;7.40
1381;DHT22;684;48.342;10.096;2023-04-24T12:37:23;15.90;7.00
1381;DHT22;684;48.342;10.096;2023-04-24T12:40:00;16.00;6.10
1381;DHT22;684;48.342;10.096;2023-04-24T12:42:27;16.10;6.00
1381;DHT22;684;48.342;10.096;2023-04-24T12:44:57;16.20;4.70
1381;DHT22;684;48.342;10.096;2023-04-24T12:47:25;16.10;3.20
1381;DHT22;684;48.342;10.096;2023-04-24T12:49:51;15.90;3.80
1381;DHT22;684;48.342;10.096;2023-04-24T12:52:18;15.80;4.30
1381;DHT22;684;48.342;10.096;2023-04-24T12:54:47;15.70;5.30
1381;DHT22;684;48.342;10.096;2023-04-24T12:57:14;15.80;6.20
1381;DHT22;684;48.342;10.096;2023-04-24T12:59:41;15.90;6.60
1381;DHT22;684;48.342;10.096;2023-04-24T13:02:07;16.00;6.70
1381;DHT22;684;48.342;10.096;2023-04-24T13:04:35;16.00;5.00
1381;DHT22;684;48.342;10.096;2023-04-24T13:07:02;16.00;4.20
1381;DHT22;684;48.342;10.096;2023-04-24T13:09:30;16.00;4.80
1381;DHT22;684;48.342;10.096;2023-04-24T13:11:58;16.00;4.10
1381;DHT22;684;48.342;10.096;2023-04-24T13:14:26;15.90;4.70
1381;DHT22;684;48.342;10.096;2023-04-24T13:16:53;15.90;5.10
1381;DHT22;684;48.342;10.096;2023-04-24T13:19:19;15.90;5.70
1381;DHT22;684;48.342;10.096;2023-04-24T13:21:46;15.90;6.10
1381;DHT22;684;48.342;10.096;2023-04-24T13:24:13;16.10;6.90
1381;DHT22;684;48.342;10.096;2023-04-24T13:26:41;16.20;5.20
1381;DHT22;684;48.342;10.096;2023-04-24T13:29:09;16.10;5.40
1381;DHT22;684;48.342;10.096;2023-04-24T13:31:36;16.10;5.20
1381;DHT22;684;48.342;10.096;2023-04-24T13:34:03;16.10;6.60
1381;DHT22;684;48.342;10.096;2023-04-24T13:36:30;16.00;7.10
1381;DHT22;684;48.342;10.096;2023-04-24T13:38:57;15.90;6.90
1381;DHT22;684;48.342;10.096;2023-04-24T13:41:23;15.80;6.30
1381;DHT22;684;48.342;10.096;2023-04-24T13:43:50;15.70;6.00
1381;DHT22;684;48.342;10.096;2023-04-24T13:46:18;15.60;6.30
1381;DHT22;684;48.342;10.096;2023-04-24T13:48:45;15.60;6.10
1381;DHT22;684;48.342;10.096;2023-04-24T13:51:12;15.60;6.10
1381;DHT22;684;48.342;10.096;2023-04-24T13:53:38;15.60;5.80
1381;DHT22;684;48.342;10.096;2023-04-24T13:56:06;15.60;6.80
1381;DHT22;684;48.342;10.096;2023-04-24T13:58:33;15.60;7.40
1381;DHT22;684;48.342;10.096;2023-04-24T14:01:00;15.70;6.70
1381;DHT22;684;48.342;10.096;2023-04-24T14:03:28;15.50;6.80
1381;DHT22;684;48.342;10.096;2023-04-24T14:05:54;15.40;6.90
1381;DHT22;684;48.342;10.096;2023-04-24T14:08:21;15.30;7.10
1381;DHT22;684;48.342;10.096;2023-04-24T14:10:48;15.20;6.30
1381;DHT22;684;48.342;10.096;2023-04-24T14:13:15;15.20;6.20
1381;DHT22;684;48.342;10.096;2023-04-24T14:15:44;15.20;6.40
1381;DHT22;684;48.342;10.096;2023-04-24T14:18:11;15.10;7.00
1381;DHT22;684;48.342;10.096;2023-04-24T14:20:39;15.20;6.30
1381;DHT22;684;48.342;10.096;2023-04-24T14:23:06;15.10;6.30
1381;DHT22;684;48.342;10.096;2023-04-24T14:25:33;15.00;6.50
1381;DHT22;684;48.342;10.096;2023-04-24T14:28:00;15.00;6.00
1381;DHT22;684;48.342;10.096;2023-04-24T14:30:27;15.00;6.60
1381;DHT22;684;48.342;10.096;2023-04-24T14:32:53;15.00;6.40
1381;DHT22;684;48.342;10.096;2023-04-24T14:35:21;15.00;6.60
1381;DHT22;684;48.342;10.096;2023-04-24T14:37:49;15.00;6.70
1381;DHT22;684;48.342;10.096;2023-04-24T14:40:16;15.00;7.00
1381;DHT22;684;48.342;10.096;2023-04-24T14:42:43;14.90;7.40
1381;DHT22;684;48.342;10.096;2023-04-24T14:45:10;14.80;7.10
1381;DHT22;684;48.342;10.096;2023-04-24T14:47:36;14.70;7.00
1381;DHT22;684;48.342;10.096;2023-04-24T14:50:04;14.70;7.50
1381;DHT22;684;48.342;10.096;2023-04-24T14:52:31;14.60;7.40
1381;DHT22;684;48.342;10.096;2023-04-24T14:55:00;14.60;7.00
1381;DHT22;684;48.342;10.096;2023-04-24T14:57:26;14.50;7.40
1381;DHT22;684;48.342;10.096;2023-04-24T14:59:53;14.40;7.90
1381;DHT22;684;48.342;10.096;2023-04-24T15:02:20;14.50;6.00
1381;DHT22;684;48.342;10.096;2023-04-24T15:04:46;14.40;5.60
1381;DHT22;684;48.342;10.096;2023-04-24T15:07:13;14.40;7.40
1381;DHT22;684;48.342;10.096;2023-04-24T15:09:40;14.30;6.50
1381;DHT22;684;48.342;10.096;2023-04-24T15:12:09;14.30;6.00
1381;DHT22;684;48.342;10.096;2023-04-24T15:14:37;14.30;4.80
1381;DHT22;684;48.342;10.096;2023-04-24T15:17:04;14.20;5.20
1381;DHT22;684;48.342;10.096;2023-04-24T15:19:31;14.20;6.50
1381;DHT22;684;48.342;10.096;2023-04-24T15:21:57;14.30;6.50
1381;DHT22;684;48.342;10.096;2023-04-24T15:24:24;14.30;6.10
1381;DHT22;684;48.342;10.096;2023-04-24T15:26:51;14.30;6.60
1381;DHT22;684;48.342;10.096;2023-04-24T15:29:19;14.30;5.40
1381;DHT22;684;48.342;10.096;2023-04-24T15:31:46;14.30;5.90
1381;DHT22;684;48.342;10.096;2023-04-24T15:34:12;14.30;5.40
1381;DHT22;684;48.342;10.096;2023-04-24T15:36:39;14.30;5.20
1381;DHT22;684;48.342;10.096;2023-04-24T15:39:06;14.20;5.20
1381;DHT22;684;48.342;10.096;2023-04-24T15:41:33;14.20;5.90
1381;DHT22;684;48.342;10.096;2023-04-24T15:44:00;14.20;4.90
1381;DHT22;684;48.342;10.096;2023-04-24T15:46:28;14.10;5.40
1381;DHT22;684;48.342;10.096;2023-04-24T15:48:55;14.10;5.40
1381;DHT22;684;48.342;10.096;2023-04-24T15:51:22;14.10;6.00
1381;DHT22;684;48.342;10.096;2023-04-24T15:53:48;14.00;6.10
1381;DHT22;684;48.342;10.096;2023-04-24T15:56:15;14.10;6.40
1381;DHT22;684;48.342;10.096;2023-04-24T15:58:42;14.10;7.40
1381;DHT22;684;48.342;10.096;2023-04-24T16:01:09;14.10;7.30
1381;DHT22;684;48.342;10.096;2023-04-24T16:03:37;14.10;7.00
1381;DHT22;684;48.342;10.096;2023-04-24T16:06:04;14.00;6.80
1381;DHT22;684;48.342;10.096;2023-04-24T16:08:31;14.00;6.90
1381;DHT22;684;48.342;10.096;2023-04-24T16:10:57;14.00;7.20
1381;DHT22;684;48.342;10.096;2023-04-24T16:13:24;13.90;7.10